createdAt,value
2019-01-28T00:00:47.594Z,294.05
2019-01-28T00:03:17.621Z,328.67
2019-01-28T00:05:49.015Z,570.33
2019-01-28T00:08:18.841Z,730.67
2019-01-28T00:10:48.681Z,828.97
2019-01-28T00:13:18.388Z,788.75
2019-01-28T00:15:49.138Z,745.55
2019-01-28T00:18:19.047Z,699.73
2019-01-28T00:20:49.753Z,695.65
2019-01-28T00:23:20.543Z,652.37
2019-01-28T00:25:50.297Z,607.40
2019-01-28T00:28:20.075Z,579.55
2019-01-28T00:30:49.825Z,569.58
2019-01-28T00:33:20.415Z,529.48
2019-01-28T00:35:50.129Z,518.20
2019-01-28T00:38:19.794Z,485.48
2019-01-28T00:40:49.468Z,453.18
2019-01-28T00:43:20.161Z,443.82
2019-01-28T00:45:49.802Z,425.38
2019-01-28T00:48:19.567Z,416.40
2019-01-28T00:50:49.326Z,395.35
2019-01-28T00:53:19.237Z,382.37
2019-01-28T00:55:49.099Z,361.05
2019-01-28T00:58:18.846Z,357.30
2019-01-28T01:00:48.601Z,334.75
2019-01-28T01:03:18.471Z,326.77
2019-01-28T01:05:48.493Z,332.15
2019-01-28T01:08:18.262Z,330.67
2019-01-28T01:10:48.007Z,325.57
2019-01-28T01:13:18.634Z,338.87
2019-01-28T01:15:49.272Z,327.43
2019-01-28T01:18:20.028Z,327.20
2019-01-28T01:20:49.750Z,325.40
2019-01-28T01:23:20.337Z,324.93
2019-01-28T01:25:50.074Z,358.13
2019-01-28T01:28:19.745Z,378.35
2019-01-28T01:30:49.515Z,361.77
2019-01-28T01:33:19.184Z,356.55
2019-01-28T01:35:49.684Z,341.93
2019-01-28T01:38:19.618Z,345.67
2019-01-28T01:40:49.418Z,347.83
2019-01-28T01:43:19.102Z,333.68
2019-01-28T01:45:48.755Z,336.50
2019-01-28T01:48:19.444Z,332.95
2019-01-28T01:50:51.100Z,340.87
2019-01-28T01:53:20.782Z,326.65
2019-01-28T01:55:50.464Z,334.37
2019-01-28T01:58:20.166Z,325.80
2019-01-28T02:00:49.930Z,334.27
2019-01-28T02:03:19.615Z,327.22
2019-01-28T02:05:49.427Z,323.15
2019-01-28T02:08:20.046Z,329.32
2019-01-28T02:10:49.833Z,319.33
2019-01-28T02:13:19.586Z,326.90
2019-01-28T02:15:49.254Z,316.68
2019-01-28T02:18:18.973Z,314.88
2019-01-28T02:20:48.699Z,321.37
2019-01-28T02:23:18.446Z,312.08
2019-01-28T02:25:48.169Z,323.25
2019-01-28T02:28:17.927Z,306.87
2019-01-28T02:30:47.674Z,316.82
2019-01-28T02:33:17.447Z,301.73
2019-01-28T02:35:47.375Z,301.18
2019-01-28T02:38:18.114Z,299.80
2019-01-28T02:40:48.704Z,283.65
2019-01-28T02:43:18.475Z,306.90
2019-01-28T02:45:48.150Z,317.50
2019-01-28T02:48:17.925Z,416.45
2019-01-28T02:50:47.643Z,549.00
2019-01-28T02:53:17.411Z,617.95
2019-01-28T02:55:47.333Z,572.83
2019-01-28T02:58:17.074Z,537.65
2019-01-28T03:00:46.846Z,509.00
2019-01-28T03:03:17.551Z,497.37
2019-01-28T03:05:47.369Z,457.70
2019-01-28T03:08:17.076Z,442.77
2019-01-28T03:10:46.802Z,505.48
2019-01-28T03:13:17.648Z,511.08
2019-01-28T03:15:47.470Z,569.60
2019-01-28T03:18:17.441Z,599.37
2019-01-28T03:20:47.238Z,612.58
2019-01-28T03:23:18.369Z,576.17
2019-01-28T03:25:48.111Z,547.17
2019-01-28T03:28:17.790Z,513.92
2019-01-28T03:30:48.440Z,484.20
2019-01-28T03:33:18.695Z,451.25
2019-01-28T03:35:48.473Z,431.25
2019-01-28T03:38:18.243Z,411.38
2019-01-28T03:40:47.922Z,463.83
2019-01-28T03:43:17.765Z,444.97
2019-01-28T03:45:48.505Z,420.52
2019-01-28T03:48:18.272Z,508.02
2019-01-28T03:50:47.941Z,459.10
2019-01-28T03:53:17.936Z,446.37
2019-01-28T03:55:47.744Z,453.68
2019-01-28T03:58:17.639Z,399.52
2019-01-28T04:00:47.274Z,405.22
2019-01-28T04:03:17.056Z,364.05
2019-01-28T04:05:46.793Z,369.32
2019-01-28T04:08:16.577Z,351.75
2019-01-28T04:10:46.298Z,351.25
2019-01-28T04:13:16.098Z,341.80
2019-01-28T04:15:45.823Z,335.25
2019-01-28T04:18:15.764Z,329.90
2019-01-28T04:20:45.504Z,338.77
2019-01-28T04:23:15.188Z,344.27
2019-01-28T04:25:44.940Z,341.08
2019-01-28T04:28:15.482Z,330.13
2019-01-28T04:30:45.307Z,323.27
2019-01-28T04:33:14.967Z,319.45
2019-01-28T04:35:44.708Z,327.10
2019-01-28T04:38:14.540Z,323.70
2019-01-28T04:40:44.287Z,326.80
2019-01-28T04:43:13.969Z,329.87
2019-01-28T04:45:43.658Z,334.87
2019-01-28T04:48:13.337Z,325.62
2019-01-28T04:50:43.105Z,342.50
2019-01-28T04:53:12.844Z,333.50
2019-01-28T04:55:42.527Z,350.55
2019-01-28T04:58:12.280Z,346.52
2019-01-28T05:00:41.962Z,325.77
2019-01-28T05:03:11.552Z,341.85
2019-01-28T05:05:41.414Z,342.75
2019-01-28T05:08:11.085Z,336.00
2019-01-28T05:10:40.775Z,340.32
2019-01-28T05:13:10.500Z,347.55
2019-01-28T05:15:40.270Z,339.63
2019-01-28T05:18:10.923Z,331.63
2019-01-28T05:20:40.607Z,340.98
2019-01-28T05:23:10.406Z,322.75
2019-01-28T05:25:40.299Z,330.65
2019-01-28T05:28:10.071Z,328.02
2019-01-28T05:30:40.677Z,325.03
2019-01-28T05:33:10.300Z,327.20
2019-01-28T05:35:40.048Z,317.62
2019-01-28T05:38:09.720Z,320.95
2019-01-28T05:40:39.542Z,398.87
2019-01-28T05:43:09.395Z,370.37
2019-01-28T05:45:39.126Z,360.17
2019-01-28T05:48:08.785Z,355.23
2019-01-28T05:50:38.537Z,357.00
2019-01-28T05:53:08.351Z,352.60
2019-01-28T05:55:37.953Z,379.20
2019-01-28T05:58:07.703Z,379.07
2019-01-28T06:00:39.070Z,366.75
2019-01-28T06:03:08.974Z,357.77
2019-01-28T06:05:38.651Z,360.13
2019-01-28T06:08:08.446Z,345.17
2019-01-28T06:10:38.122Z,349.65
2019-01-28T06:13:07.888Z,340.87
2019-01-28T06:15:37.542Z,327.23
2019-01-28T06:18:07.330Z,324.25
2019-01-28T06:20:36.997Z,333.87
2019-01-28T06:23:06.723Z,342.02
2019-01-28T06:25:36.401Z,347.35
2019-01-28T06:28:06.246Z,348.75
2019-01-28T06:30:35.983Z,331.63
2019-01-28T06:33:05.887Z,347.25
2019-01-28T06:35:35.706Z,314.00
2019-01-28T06:38:05.537Z,319.23
2019-01-28T06:40:35.797Z,314.52
2019-01-28T06:43:05.500Z,320.27
2019-01-28T06:45:35.259Z,317.32
2019-01-28T06:48:05.406Z,320.25
2019-01-28T06:50:35.077Z,315.43
2019-01-28T06:53:04.946Z,321.13
2019-01-28T06:55:34.766Z,325.95
2019-01-28T06:58:05.334Z,323.02
2019-01-28T07:00:36.151Z,331.07
2019-01-28T07:03:06.999Z,325.83
2019-01-28T07:05:36.674Z,333.60
2019-01-28T07:08:06.715Z,334.07
2019-01-28T07:10:38.313Z,339.32
2019-01-28T07:13:07.992Z,344.70
2019-01-28T07:15:37.732Z,337.40
2019-01-28T07:18:07.425Z,329.45
2019-01-28T07:20:37.196Z,342.85
2019-01-28T07:23:06.963Z,326.60
2019-01-28T07:25:36.717Z,334.67
2019-01-28T07:28:06.463Z,327.15
2019-01-28T07:30:38.222Z,335.15
2019-01-28T07:33:07.911Z,333.87
2019-01-28T07:35:37.638Z,344.52
2019-01-28T07:38:07.371Z,328.98
2019-01-28T07:40:37.050Z,325.65
2019-01-28T07:43:06.781Z,328.30
2019-01-28T07:45:44.562Z,345.23
2019-01-28T07:48:08.893Z,348.67
2019-01-28T07:50:38.765Z,341.95
2019-01-28T07:53:08.424Z,357.98
2019-01-28T07:55:38.194Z,356.32
2019-01-28T07:58:07.994Z,369.70
2019-01-28T08:00:37.738Z,354.70
2019-01-28T08:03:07.522Z,337.27
2019-01-28T08:05:37.483Z,320.90
2019-01-28T08:08:07.223Z,326.02
2019-01-28T08:10:36.978Z,332.52
2019-01-28T08:13:06.985Z,324.37
2019-01-28T08:15:36.846Z,358.85
2019-01-28T08:18:10.937Z,369.27
2019-01-28T08:20:38.272Z,344.30
2019-01-28T08:23:07.936Z,347.75
2019-01-28T08:25:37.687Z,343.05
2019-01-28T08:28:07.422Z,348.90
2019-01-28T08:30:37.576Z,348.27
2019-01-28T08:33:07.327Z,330.27
2019-01-28T08:35:39.040Z,339.60
2019-01-28T08:38:08.814Z,323.75
2019-01-28T08:40:38.465Z,304.77
2019-01-28T08:43:08.270Z,342.35
2019-01-28T08:45:38.002Z,351.75
2019-01-28T08:48:07.851Z,357.15
2019-01-28T08:50:37.642Z,379.90
2019-01-28T08:53:07.425Z,383.15
2019-01-28T08:55:37.160Z,380.50
2019-01-28T08:58:06.980Z,390.95
2019-01-28T09:00:38.611Z,367.02
2019-01-28T09:03:08.438Z,379.33
2019-01-28T09:05:38.297Z,359.75
2019-01-28T09:08:08.501Z,368.05
2019-01-28T09:10:38.453Z,370.20
2019-01-28T09:13:08.558Z,364.85
2019-01-28T09:15:38.299Z,371.43
2019-01-28T09:18:09.318Z,376.73
2019-01-28T09:20:39.094Z,375.65
2019-01-28T09:23:09.378Z,388.80
2019-01-28T09:25:39.128Z,388.23
2019-01-28T09:28:08.790Z,378.62
2019-01-28T09:30:39.503Z,370.42
2019-01-28T09:33:09.278Z,368.93
2019-01-28T09:35:39.208Z,385.03
2019-01-28T09:38:08.936Z,372.35
2019-01-28T09:40:38.764Z,385.90
2019-01-28T09:43:08.491Z,367.68
2019-01-28T09:45:40.616Z,389.90
2019-01-28T09:48:12.210Z,368.10
2019-01-28T09:50:41.978Z,365.40
2019-01-28T09:53:13.206Z,374.55
2019-01-28T09:55:42.954Z,386.57
2019-01-28T09:58:12.702Z,355.35
2019-01-28T10:00:45.490Z,336.15
2019-01-28T10:03:15.381Z,334.48
2019-01-28T10:05:46.107Z,301.30
2019-01-28T10:08:16.371Z,282.80
2019-01-28T10:10:47.035Z,300.60
2019-01-28T10:13:16.898Z,294.77
2019-01-28T10:15:46.822Z,284.55
2019-01-28T10:18:16.736Z,247.52
2019-01-28T10:20:47.287Z,336.00
2019-01-28T10:23:17.051Z,344.00
2019-01-28T10:25:47.242Z,331.52
2019-01-28T10:28:17.151Z,324.48
2019-01-28T10:30:47.675Z,296.77
2019-01-28T10:33:17.421Z,198.97
2019-01-28T10:35:47.416Z,382.00
2019-01-28T10:38:17.349Z,403.00
2019-01-28T10:40:49.120Z,391.23
2019-01-28T10:43:18.925Z,414.73
2019-01-28T10:45:48.532Z,379.35
2019-01-28T10:48:18.559Z,382.87
2019-01-28T10:50:48.234Z,354.98
2019-01-28T10:53:17.972Z,354.05
2019-01-28T10:55:47.858Z,375.32
2019-01-28T10:58:17.581Z,388.10
2019-01-28T11:00:48.132Z,392.75
2019-01-28T11:03:19.869Z,389.03
2019-01-28T11:05:49.713Z,393.20
2019-01-28T11:08:19.450Z,378.92
2019-01-28T11:10:49.275Z,392.73
2019-01-28T11:13:19.114Z,381.45
2019-01-28T11:15:48.806Z,393.73
2019-01-28T11:18:22.048Z,365.82
2019-01-28T11:20:52.011Z,372.15
2019-01-28T11:23:21.824Z,298.13
2019-01-28T11:25:52.594Z,379.57
2019-01-28T11:28:24.593Z,370.73
2019-01-28T11:30:57.108Z,348.80
2019-01-28T11:33:26.974Z,365.00
2019-01-28T11:36:04.722Z,380.75
2019-01-28T11:38:28.346Z,351.43
2019-01-28T11:40:58.123Z,387.20
2019-01-28T11:43:27.875Z,359.30
2019-01-28T11:45:59.885Z,347.37
2019-01-28T11:48:29.819Z,350.82
2019-01-28T11:50:59.754Z,309.67
2019-01-28T11:53:29.486Z,333.73
2019-01-28T11:55:59.230Z,388.78
2019-01-28T11:58:28.986Z,378.58
2019-01-28T12:01:05.048Z,358.57
2019-01-28T12:03:34.809Z,426.52
2019-01-28T12:06:05.126Z,390.18
2019-01-28T12:08:34.853Z,367.82
2019-01-28T12:11:05.521Z,427.25
2019-01-28T12:13:35.115Z,387.40
2019-01-28T12:16:05.238Z,384.45
2019-01-28T12:18:36.608Z,405.50
2019-01-28T12:21:08.551Z,405.70
2019-01-28T12:23:38.365Z,383.73
2019-01-28T12:26:08.121Z,428.27
2019-01-28T12:28:37.887Z,407.38
2019-01-28T12:31:07.636Z,382.05
2019-01-28T12:33:37.459Z,412.60
2019-01-28T12:36:07.298Z,405.70
2019-01-28T12:38:37.140Z,383.90
2019-01-28T12:41:06.793Z,384.10
2019-01-28T12:43:38.455Z,367.83
2019-01-28T12:46:08.214Z,332.48
2019-01-28T12:48:37.872Z,375.32
2019-01-28T12:51:07.690Z,410.02
2019-01-28T12:53:37.650Z,418.23
2019-01-28T12:56:07.346Z,407.95
2019-01-28T12:58:37.079Z,379.77
2019-01-28T13:01:06.831Z,403.60
2019-01-28T13:03:36.565Z,443.13
2019-01-28T13:06:06.311Z,435.78
2019-01-28T13:08:35.965Z,410.25
2019-01-28T13:11:05.832Z,419.65
2019-01-28T13:13:40.963Z,430.15
2019-01-28T13:16:08.562Z,427.82
2019-01-28T13:18:38.299Z,376.30
2019-01-28T13:21:08.159Z,396.23
2019-01-28T13:23:37.923Z,375.57
2019-01-28T13:26:07.743Z,352.60
2019-01-28T13:28:37.524Z,380.42
2019-01-28T13:31:07.362Z,394.18
2019-01-28T13:33:37.118Z,390.95
2019-01-28T13:36:09.360Z,366.80
2019-01-28T13:38:38.385Z,377.85
2019-01-28T13:41:08.115Z,373.25
2019-01-28T13:43:37.947Z,368.82
2019-01-28T13:46:07.740Z,390.75
2019-01-28T13:48:37.543Z,372.10
2019-01-28T13:51:07.412Z,370.27
2019-01-28T13:53:37.150Z,381.70
2019-01-28T13:56:06.907Z,395.93
2019-01-28T13:58:36.525Z,408.80
2019-01-28T14:01:06.360Z,409.55
2019-01-28T14:03:36.179Z,401.00
2019-01-28T14:06:06.093Z,404.05
2019-01-28T14:08:35.905Z,404.40
2019-01-28T14:11:05.647Z,395.90
2019-01-28T14:13:35.470Z,379.82
2019-01-28T14:16:05.265Z,367.75
2019-01-28T14:18:36.085Z,374.88
2019-01-28T14:21:05.875Z,393.27
2019-01-28T14:23:35.551Z,395.20
2019-01-28T14:26:05.398Z,393.00
2019-01-28T14:28:35.174Z,388.37
2019-01-28T14:31:04.916Z,392.82
2019-01-28T14:33:34.561Z,373.67
2019-01-28T14:36:04.749Z,385.48
2019-01-28T14:38:34.487Z,365.12
2019-01-28T14:41:04.253Z,359.23
2019-01-28T14:43:34.071Z,380.50
2019-01-28T14:46:03.890Z,382.65
2019-01-28T14:48:33.600Z,359.30
2019-01-28T14:51:03.390Z,378.77
2019-01-28T14:53:34.704Z,349.33
2019-01-28T14:56:04.864Z,356.83
2019-01-28T14:58:34.621Z,354.82
2019-01-28T15:01:04.909Z,369.75
2019-01-28T15:03:34.519Z,380.20
2019-01-28T15:06:04.574Z,361.30
2019-01-28T15:08:34.306Z,338.80
2019-01-28T15:11:04.236Z,350.35
2019-01-28T15:13:34.532Z,369.50
2019-01-28T15:16:09.070Z,375.65
2019-01-28T15:18:37.118Z,359.45
2019-01-28T15:21:07.827Z,379.52
2019-01-28T15:23:37.509Z,384.48
2019-01-28T15:26:07.171Z,381.23
2019-01-28T15:28:36.884Z,362.00
2019-01-28T15:31:08.236Z,351.07
2019-01-28T15:33:37.904Z,360.45
2019-01-28T15:36:07.638Z,336.57
2019-01-28T15:38:37.387Z,361.82
2019-01-28T15:41:07.107Z,334.45
2019-01-28T15:43:37.935Z,367.85
2019-01-28T15:46:08.673Z,340.12
2019-01-28T15:48:38.362Z,330.40
2019-01-28T15:51:08.020Z,332.10
2019-01-28T15:53:37.854Z,337.85
2019-01-28T15:56:07.616Z,337.93
2019-01-28T15:58:38.243Z,310.57
2019-01-28T16:01:08.116Z,330.45
2019-01-28T16:03:37.905Z,320.65
2019-01-28T16:06:07.771Z,332.20
2019-01-28T16:08:37.592Z,331.87
2019-01-28T16:11:08.314Z,320.93
2019-01-28T16:13:38.099Z,324.07
2019-01-28T16:16:07.963Z,335.53
2019-01-28T16:18:37.557Z,332.55
2019-01-28T16:21:07.467Z,334.85
2019-01-28T16:23:37.403Z,318.90
2019-01-28T16:26:07.155Z,311.77
2019-01-28T16:28:37.705Z,319.25
2019-01-28T16:31:07.462Z,319.23
2019-01-28T16:33:38.126Z,316.63
2019-01-28T16:36:08.136Z,307.57
2019-01-28T16:38:37.807Z,318.77
2019-01-28T16:41:07.625Z,324.17
2019-01-28T16:43:37.492Z,301.05
2019-01-28T16:46:07.224Z,305.00
2019-01-28T16:48:37.013Z,291.10
2019-01-28T16:51:07.580Z,293.90
2019-01-28T16:53:37.340Z,299.88
2019-01-28T16:56:07.136Z,304.18
2019-01-28T16:58:37.653Z,295.20
2019-01-28T17:01:07.487Z,295.30
2019-01-28T17:03:38.095Z,295.73
2019-01-28T17:06:07.818Z,297.40
2019-01-28T17:08:37.602Z,297.73
2019-01-28T17:11:07.405Z,302.73
2019-01-28T17:13:37.078Z,295.85
2019-01-28T17:16:06.814Z,280.20
2019-01-28T17:18:36.559Z,297.87
2019-01-28T17:21:06.989Z,304.18
2019-01-28T17:23:36.765Z,301.42
2019-01-28T17:26:06.492Z,283.32
2019-01-28T17:28:36.244Z,275.57
2019-01-28T17:31:06.984Z,281.80
2019-01-28T17:33:36.633Z,283.02
2019-01-28T17:36:06.529Z,306.03
2019-01-28T17:38:36.200Z,301.60
2019-01-28T17:41:06.199Z,275.10
2019-01-28T17:43:35.976Z,271.80
2019-01-28T17:46:05.787Z,290.07
2019-01-28T17:48:36.934Z,282.10
2019-01-28T17:51:06.693Z,287.80
2019-01-28T17:53:39.130Z,276.45
2019-01-28T17:56:08.822Z,278.00
2019-01-28T17:58:38.569Z,278.48
2019-01-28T18:01:09.321Z,276.32
2019-01-28T18:03:39.150Z,256.27
2019-01-28T18:06:09.224Z,274.02
2019-01-28T18:08:38.898Z,265.62
2019-01-28T18:11:08.582Z,275.22
2019-01-28T18:13:38.284Z,267.40
2019-01-28T18:16:08.023Z,266.63
2019-01-28T18:18:37.647Z,270.35
2019-01-28T18:21:07.415Z,285.02
2019-01-28T18:23:38.771Z,279.45
2019-01-28T18:26:08.704Z,268.60
2019-01-28T18:28:38.426Z,271.15
2019-01-28T18:31:08.163Z,266.30
2019-01-28T18:33:38.011Z,265.57
2019-01-28T18:36:07.744Z,287.40
2019-01-28T18:38:37.433Z,295.00
2019-01-28T18:41:07.415Z,280.37
2019-01-28T18:43:37.271Z,274.52
2019-01-28T18:46:07.027Z,281.40
2019-01-28T18:48:38.258Z,283.38
2019-01-28T18:51:07.993Z,274.15
2019-01-28T18:53:37.843Z,280.10
2019-01-28T18:56:07.787Z,291.05
2019-01-28T18:58:37.459Z,276.70
2019-01-28T19:01:07.323Z,278.45
2019-01-28T19:03:37.288Z,270.70
2019-01-28T19:06:11.993Z,282.25
2019-01-28T19:08:51.670Z,300.80
2019-01-28T19:11:26.036Z,826.97
2019-01-28T19:13:57.648Z,824.73
2019-01-28T19:16:31.589Z,836.43
2019-01-28T19:19:06.015Z,845.40
2019-01-28T19:21:40.479Z,816.68
2019-01-28T19:24:10.159Z,750.90
2019-01-28T19:26:39.946Z,690.28
2019-01-28T19:29:09.598Z,658.23
2019-01-28T19:31:40.080Z,628.42
2019-01-28T19:34:09.918Z,599.88
2019-01-28T19:36:39.715Z,578.75
2019-01-28T19:39:10.025Z,565.90
2019-01-28T19:41:39.783Z,537.05
2019-01-28T19:44:10.353Z,527.95
2019-01-28T19:46:40.239Z,502.28
2019-01-28T19:49:10.076Z,493.90
2019-01-28T19:51:39.858Z,485.85
2019-01-28T19:54:09.647Z,471.93
2019-01-28T19:56:39.361Z,461.68
2019-01-28T19:59:09.023Z,451.63
2019-01-28T20:01:38.863Z,451.70
2019-01-28T20:04:08.595Z,481.70
2019-01-28T20:06:38.416Z,647.35
2019-01-28T20:09:08.735Z,748.90
2019-01-28T20:11:38.628Z,743.10
2019-01-28T20:14:09.262Z,695.23
2019-01-28T20:16:38.992Z,659.65
2019-01-28T20:19:08.971Z,624.83
2019-01-28T20:21:38.733Z,600.30
2019-01-28T20:24:08.599Z,583.58
2019-01-28T20:26:38.270Z,545.73
2019-01-28T20:29:08.180Z,532.97
2019-01-28T20:31:38.955Z,516.73
2019-01-28T20:34:08.854Z,513.55
2019-01-28T20:36:38.602Z,498.97
2019-01-28T20:39:09.033Z,488.83
2019-01-28T20:41:39.161Z,489.67
2019-01-28T20:44:08.917Z,463.22
2019-01-28T20:46:38.661Z,455.65
2019-01-28T20:49:08.618Z,449.32
2019-01-28T20:51:38.428Z,441.62
2019-01-28T20:54:08.244Z,436.10
2019-01-28T20:56:39.913Z,439.52
2019-01-28T20:59:09.862Z,420.75
2019-01-28T21:01:39.706Z,420.88
2019-01-28T21:04:09.471Z,400.90
2019-01-28T21:06:39.214Z,407.55
2019-01-28T21:09:10.328Z,389.70
2019-01-28T21:11:40.143Z,381.25
2019-01-28T21:14:10.023Z,375.80
2019-01-28T21:16:40.023Z,371.93
2019-01-28T21:19:09.791Z,364.98
2019-01-28T21:21:42.039Z,364.15
2019-01-28T21:24:11.107Z,361.48
2019-01-28T21:26:40.800Z,348.45
2019-01-28T21:29:10.914Z,345.13
2019-01-28T21:31:40.604Z,342.27
2019-01-28T21:34:10.352Z,335.48
2019-01-28T21:36:41.675Z,335.75
2019-01-28T21:39:12.329Z,337.48
2019-01-28T21:41:42.175Z,347.70
2019-01-28T21:44:12.075Z,384.05
2019-01-28T21:46:41.759Z,390.43
2019-01-28T21:49:11.498Z,378.62
2019-01-28T21:51:41.232Z,374.05
2019-01-28T21:54:10.995Z,374.48
2019-01-28T21:56:40.669Z,374.05
2019-01-28T21:59:10.439Z,380.62
2019-01-28T22:01:40.517Z,385.22
2019-01-28T22:04:11.123Z,371.03
2019-01-28T22:06:40.916Z,380.48
2019-01-28T22:09:10.736Z,374.12
2019-01-28T22:11:40.488Z,371.07
2019-01-28T22:14:10.142Z,388.25
2019-01-28T22:16:39.940Z,369.32
2019-01-28T22:19:09.601Z,353.92
2019-01-28T22:21:39.349Z,360.65
2019-01-28T22:24:09.081Z,352.93
2019-01-28T22:26:38.790Z,441.90
2019-01-28T22:29:08.458Z,468.57
2019-01-28T22:31:39.054Z,482.12
2019-01-28T22:34:08.812Z,495.23
2019-01-28T22:36:38.517Z,504.75
2019-01-28T22:39:08.939Z,490.58
2019-01-28T22:41:38.947Z,474.23
2019-01-28T22:44:08.623Z,462.60
2019-01-28T22:46:38.378Z,452.52
2019-01-28T22:49:08.074Z,440.35
2019-01-28T22:51:37.812Z,432.32
2019-01-28T22:54:07.406Z,420.85
2019-01-28T22:56:37.189Z,423.37
2019-01-28T22:59:07.835Z,418.17
2019-01-28T23:01:37.783Z,411.62
2019-01-28T23:04:07.652Z,412.80
2019-01-28T23:06:37.536Z,414.48
2019-01-28T23:09:09.446Z,409.83
2019-01-28T23:11:40.184Z,406.47
2019-01-28T23:14:09.918Z,392.10
2019-01-28T23:16:39.678Z,391.02
2019-01-28T23:19:09.415Z,380.43
2019-01-28T23:21:39.195Z,391.32
2019-01-28T23:24:10.302Z,391.45
2019-01-28T23:26:39.988Z,395.07
2019-01-28T23:29:09.840Z,372.67
2019-01-28T23:31:39.621Z,378.75
2019-01-28T23:34:09.425Z,367.10
2019-01-28T23:36:39.099Z,371.47
2019-01-28T23:39:08.951Z,372.82
2019-01-28T23:41:38.715Z,371.07
2019-01-28T23:44:08.550Z,351.82
2019-01-28T23:46:38.314Z,348.95
2019-01-28T23:49:07.978Z,339.08
2019-01-28T23:51:37.766Z,345.23
2019-01-28T23:54:07.544Z,365.07
2019-01-28T23:56:37.241Z,364.37
2019-01-28T23:59:06.929Z,379.65
